Time;durP1;ratioP1;P1;durP2;ratioP2;P2;SDS_P1;SDS_P2;PMS_P1;PMS_P2;Temp;Humidity;BMP_temperature;BMP_pressure;BME280_temperature;BME280_humidity;BME280_pressure;Samples;Min_cycle;Max_cycle;Signal;HPM_P1;HPM_P2
2022/03/27 00:00:23;;;;;;;14.13;9.50;;;5.50;99.90;;;;;;5034670;28;20183;-67
2022/03/27 00:02:48;;;;;;;18.93;10.70;;;5.50;1.00;;;;;;5035322;28;20278;-62
2022/03/27 00:05:14;;;;;;;17.20;11.17;;;5.50;1.00;;;;;;5035232;28;20168;-63
2022/03/27 00:07:40;;;;;;;16.83;9.57;;;5.50;1.00;;;;;;5035055;28;20653;-63
2022/03/27 00:10:06;;;;;;;13.50;10.03;;;5.50;1.00;;;;;;5034444;28;20175;-67
2022/03/27 00:12:32;;;;;;;13.67;9.60;;;5.50;1.00;;;;;;5035176;28;20229;-67
2022/03/27 00:14:58;;;;;;;18.67;11.20;;;5.40;1.00;;;;;;5034983;28;20410;-67
2022/03/27 00:17:23;;;;;;;25.03;11.40;;;5.30;1.00;;;;;;5034845;28;20205;-63
2022/03/27 00:19:49;;;;;;;14.47;9.97;;;5.30;1.00;;;;;;5034293;28;20644;-67
2022/03/27 00:22:15;;;;;;;18.93;10.63;;;5.30;1.00;;;;;;5034806;28;20229;-67
2022/03/27 00:24:41;;;;;;;22.60;10.50;;;5.30;1.00;;;;;;5032704;28;20200;-62
2022/03/27 00:27:07;;;;;;;15.33;8.90;;;5.20;1.00;;;;;;5034833;28;20807;-67
2022/03/27 00:29:33;;;;;;;12.23;10.50;;;5.30;1.00;;;;;;5033967;28;20438;-63
2022/03/27 00:31:59;;;;;;;18.17;10.20;;;5.20;1.00;;;;;;5034954;28;20947;-67
2022/03/27 00:34:25;;;;;;;10.87;7.47;;;5.20;1.00;;;;;;5035151;28;20179;-63
2022/03/27 00:36:51;;;;;;;10.53;7.70;;;5.20;1.00;;;;;;5034948;28;20160;-63
2022/03/27 00:39:17;;;;;;;14.60;9.27;;;5.10;1.00;;;;;;5033823;28;20468;-67
2022/03/27 00:41:45;;;;;;;14.57;8.37;;;5.10;1.00;;;;;;5034613;28;20191;-67
2022/03/27 00:44:11;;;;;;;18.07;7.83;;;5.10;1.00;;;;;;5035048;28;20406;-62
2022/03/27 00:46:37;;;;;;;15.60;8.40;;;5.10;1.00;;;;;;5033527;28;20922;-63
2022/03/27 00:49:03;;;;;;;14.93;7.90;;;5.10;1.00;;;;;;5033835;28;20175;-67
2022/03/27 00:51:29;;;;;;;15.53;7.90;;;5.10;1.00;;;;;;5034362;28;20195;-67
2022/03/27 00:53:54;;;;;;;17.97;10.30;;;5.10;1.00;;;;;;5034324;28;20422;-67
2022/03/27 00:56:20;;;;;;;14.07;7.83;;;5.10;1.00;;;;;;5034403;28;20199;-63
2022/03/27 00:58:45;;;;;;;13.03;7.60;;;5.10;1.00;;;;;;5033717;28;20551;-66
2022/03/27 01:01:18;;;;;;;14.87;7.13;;;5.00;1.00;;;;;;5034214;28;20175;-63
2022/03/27 01:03:47;;;;;;;14.07;6.90;;;5.00;1.00;;;;;;5034147;28;20525;-63
2022/03/27 01:06:36;;;;;;;12.87;7.80;;;5.00;1.00;;;;;;5034002;28;20515;-67
2022/03/27 01:11:49;;;;;;;11.50;7.30;;;4.70;1.00;;;;;;5034160;28;20810;-63
2022/03/27 01:14:24;;;;;;;16.17;7.03;;;4.70;1.00;;;;;;5033970;28;20404;-62
2022/03/27 01:17:01;;;;;;;13.90;7.43;;;4.60;1.00;;;;;;5033998;28;20468;-63
2022/03/27 01:19:28;;;;;;;15.50;7.00;;;4.70;1.00;;;;;;5033148;28;20542;-63
2022/03/27 01:21:54;;;;;;;14.87;7.83;;;4.60;1.00;;;;;;5033675;28;20973;-66
2022/03/27 01:24:19;;;;;;;13.67;7.27;;;4.60;1.00;;;;;;5033721;28;20408;-63
2022/03/27 01:26:45;;;;;;;12.43;7.37;;;4.60;1.00;;;;;;5033956;28;20171;-62
2022/03/27 01:29:11;;;;;;;8.97;7.77;;;4.60;1.00;;;;;;5033247;28;20175;-67
2022/03/27 01:31:37;;;;;;;8.63;6.90;;;4.60;1.00;;;;;;5033571;28;20512;-62
2022/03/27 01:34:04;;;;;;;12.50;7.63;;;4.60;1.00;;;;;;5033097;28;20438;-63
2022/03/27 01:36:34;;;;;;;15.60;8.30;;;4.50;1.00;;;;;;5033982;28;20195;-67
2022/03/27 01:39:08;;;;;;;10.80;7.63;;;4.60;1.00;;;;;;5033064;28;20463;-62
2022/03/27 01:41:34;;;;;;;9.70;7.47;;;4.60;1.00;;;;;;5033586;28;20417;-62
2022/03/27 01:44:00;;;;;;;9.13;7.43;;;4.50;1.00;;;;;;5032619;28;20815;-67
2022/03/27 01:46:30;;;;;;;15.73;7.10;;;4.50;1.00;;;;;;5033561;28;20402;-66
2022/03/27 01:48:57;;;;;;;15.43;7.60;;;4.40;1.00;;;;;;5033130;28;20471;-63
2022/03/27 01:51:24;;;;;;;15.27;7.47;;;4.40;1.00;;;;;;5033486;28;20979;-67
2022/03/27 01:53:49;;;;;;;15.10;7.27;;;4.40;1.00;;;;;;5033524;28;20421;-63
2022/03/27 01:56:15;;;;;;;12.77;7.03;;;4.40;1.00;;;;;;5033361;28;20410;-63
2022/03/27 01:58:42;;;;;;;21.43;7.33;;;4.40;1.00;;;;;;5032793;28;20556;-63
2022/03/27 02:01:08;;;;;;;15.93;7.30;;;4.40;1.00;;;;;;5033326;28;20159;-63
2022/03/27 02:03:35;;;;;;;14.40;7.17;;;4.50;1.00;;;;;;5033408;28;20413;-66
2022/03/27 02:06:02;;;;;;;13.10;7.50;;;4.40;1.00;;;;;;5033227;28;20433;-68
2022/03/27 02:08:28;;;;;;;10.83;8.60;;;4.30;1.00;;;;;;5032982;28;20763;-71
2022/03/27 02:10:54;;;;;;;13.97;7.33;;;4.20;1.00;;;;;;5033363;28;20402;-62
2022/03/27 02:13:19;;;;;;;11.27;7.30;;;4.20;1.00;;;;;;5033257;28;20855;-62
2022/03/27 02:15:46;;;;;;;10.33;7.47;;;4.20;1.00;;;;;;5033177;28;20174;-66
2022/03/27 02:18:14;;;;;;;12.77;7.73;;;4.10;1.00;;;;;;5033129;28;20455;-67
2022/03/27 02:20:40;;;;;;;15.93;7.60;;;4.10;1.00;;;;;;5032459;28;20405;-63
2022/03/27 02:23:09;;;;;;;10.13;7.37;;;4.20;1.00;;;;;;5033311;28;20906;-62
2022/03/27 02:25:34;;;;;;;15.67;8.07;;;4.20;1.00;;;;;;5033072;28;20404;-63
2022/03/27 02:28:00;;;;;;;22.70;7.80;;;4.20;1.00;;;;;;5033043;28;20430;-66
2022/03/27 02:30:26;;;;;;;15.07;7.63;;;4.20;1.00;;;;;;5032298;28;20225;-62
2022/03/27 02:32:51;;;;;;;19.57;7.40;;;4.30;1.00;;;;;;5032963;28;20396;-63
2022/03/27 02:35:17;;;;;;;22.23;6.50;;;4.30;1.00;;;;;;5032044;28;20213;-63
2022/03/27 02:37:43;;;;;;;9.40;7.30;;;4.30;1.00;;;;;;5033116;28;20196;-62
2022/03/27 02:40:09;;;;;;;6.90;5.70;;;4.30;1.00;;;;;;5032424;28;20629;-67
2022/03/27 02:42:35;;;;;;;14.57;6.83;;;4.30;1.00;;;;;;5032728;28;20191;-66
2022/03/27 02:45:01;;;;;;;17.03;6.90;;;4.30;1.00;;;;;;5033142;28;20396;-62
2022/03/27 02:47:26;;;;;;;9.23;6.23;;;4.30;1.00;;;;;;5035311;28;20466;-66
2022/03/27 02:49:52;;;;;;;8.60;6.20;;;4.30;1.00;;;;;;5036225;28;20540;-66
2022/03/27 02:52:17;;;;;;;10.17;6.47;;;4.30;1.00;;;;;;5036616;28;20190;-67
2022/03/27 02:54:44;;;;;;;6.53;5.30;;;4.30;1.00;;;;;;5036385;28;20176;-63
2022/03/27 02:57:10;;;;;;;7.53;5.97;;;4.30;1.00;;;;;;5036627;28;20174;-67
2022/03/27 02:59:36;;;;;;;10.37;5.00;;;4.20;1.00;;;;;;5036081;28;20404;-66
2022/03/27 03:02:03;;;;;;;10.40;6.50;;;4.10;1.00;;;;;;5036389;28;20424;-62
2022/03/27 03:04:30;;;;;;;10.53;6.50;;;4.00;1.00;;;;;;5036441;28;20405;-68
2022/03/27 03:06:56;;;;;;;9.50;6.17;;;4.00;1.00;;;;;;5036230;28;20438;-67
2022/03/27 03:09:22;;;;;;;8.83;5.67;;;4.00;1.00;;;;;;5035795;28;20807;-67
2022/03/27 03:11:49;;;;;;;11.10;5.90;;;3.80;1.00;;;;;;5036206;28;20438;-67
2022/03/27 03:14:15;;;;;;;6.47;5.80;;;3.70;1.00;;;;;;5036303;28;20171;-66
2022/03/27 03:16:41;;;;;;;6.83;6.30;;;3.70;1.00;;;;;;5036136;28;20414;-63
2022/03/27 03:19:06;;;;;;;6.80;5.40;;;3.70;1.00;;;;;;5035387;28;20956;-62
2022/03/27 03:21:32;;;;;;;6.83;6.13;;;3.70;1.00;;;;;;5036116;28;20659;-62
2022/03/27 03:23:58;;;;;;;11.87;5.47;;;3.80;1.00;;;;;;5036048;28;20174;-63
2022/03/27 03:26:24;;;;;;;10.70;6.27;;;3.80;1.00;;;;;;5035967;28;20506;-67
2022/03/27 03:28:50;;;;;;;22.80;8.00;;;3.80;1.00;;;;;;5035234;28;20171;-63
2022/03/27 03:31:16;;;;;;;8.73;7.43;;;3.90;1.00;;;;;;5035748;28;20433;-63
2022/03/27 03:33:41;;;;;;;14.97;6.93;;;3.90;1.00;;;;;;5035796;28;20414;-67
2022/03/27 03:36:07;;;;;;;12.20;6.73;;;3.90;1.00;;;;;;5036011;28;20198;-67
2022/03/27 03:38:33;;;;;;;13.10;8.03;;;4.00;1.00;;;;;;5035146;28;20548;-63
2022/03/27 03:40:59;;;;;;;18.07;8.00;;;4.00;1.00;;;;;;5035440;28;20185;-66
2022/03/27 03:43:25;;;;;;;14.07;8.43;;;4.00;1.00;;;;;;5035862;28;20465;-67
2022/03/27 03:45:50;;;;;;;7.90;6.03;;;4.00;1.00;;;;;;5035699;28;20175;-63
2022/03/27 03:48:17;;;;;;;13.07;6.70;;;4.10;1.00;;;;;;5035618;28;20906;-63
2022/03/27 03:50:43;;;;;;;10.30;9.07;;;4.10;1.00;;;;;;5035037;28;20268;-63
2022/03/27 03:53:09;;;;;;;9.60;6.63;;;4.10;1.00;;;;;;5035450;28;20509;-67
2022/03/27 03:55:35;;;;;;;7.70;6.33;;;4.10;1.00;;;;;;5035553;28;20182;-64
2022/03/27 03:58:02;;;;;;;9.83;6.07;;;4.10;1.00;;;;;;5035232;28;20205;-67
2022/03/27 04:00:28;;;;;;;13.67;6.70;;;4.10;1.00;;;;;;5033529;28;20775;-67
2022/03/27 04:02:54;;;;;;;17.70;6.33;;;4.10;1.00;;;;;;5035282;28;20428;-64
2022/03/27 04:05:19;;;;;;;19.77;8.20;;;4.10;1.00;;;;;;5035309;28;20189;-63
2022/03/27 04:07:45;;;;;;;13.93;6.17;;;4.10;1.00;;;;;;5035228;28;20434;-67
2022/03/27 04:10:11;;;;;;;12.07;7.27;;;4.10;1.00;;;;;;5034473;28;20228;-63
2022/03/27 04:12:37;;;;;;;9.93;7.03;;;4.10;1.00;;;;;;5035060;28;20783;-66
2022/03/27 04:15:03;;;;;;;8.50;6.77;;;4.20;1.00;;;;;;5035075;28;20417;-66
2022/03/27 04:17:30;;;;;;;10.33;7.13;;;4.10;1.00;;;;;;5034970;28;20239;-67
2022/03/27 04:19:56;;;;;;;6.87;6.27;;;4.10;1.00;;;;;;5034458;28;20406;-62
2022/03/27 04:22:21;;;;;;;8.90;5.73;;;4.00;1.00;;;;;;5034942;28;20188;-66
2022/03/27 04:24:47;;;;;;;9.80;5.30;;;3.80;1.00;;;;;;5034938;28;20497;-66
2022/03/27 04:27:13;;;;;;;6.17;5.57;;;3.80;1.00;;;;;;5034848;28;20175;-66
2022/03/27 04:29:38;;;;;;;7.37;6.60;;;3.70;1.00;;;;;;5034111;28;20191;-63
2022/03/27 04:32:04;;;;;;;6.23;5.77;;;3.70;1.00;;;;;;5034788;28;20242;-67
2022/03/27 04:34:30;;;;;;;19.60;6.27;;;3.70;1.00;;;;;;5034805;28;20180;-62
2022/03/27 04:36:55;;;;;;;12.43;6.33;;;3.70;1.00;;;;;;5034691;28;20409;-67
2022/03/27 04:39:22;;;;;;;19.53;7.90;;;3.60;1.00;;;;;;5033723;28;20220;-67
2022/03/27 04:41:48;;;;;;;12.50;6.60;;;3.60;1.00;;;;;;5034466;28;20261;-66
2022/03/27 04:44:14;;;;;;;10.50;6.10;;;3.60;1.00;;;;;;5034729;28;20452;-62
2022/03/27 04:46:39;;;;;;;27.77;9.33;;;3.60;1.00;;;;;;5034579;28;20251;-63
2022/03/27 04:49:05;;;;;;;17.33;9.27;;;3.70;1.00;;;;;;5033882;28;20260;-63
2022/03/27 04:51:31;;;;;;;14.47;7.80;;;3.80;1.00;;;;;;5034329;28;20335;-66
2022/03/27 04:53:57;;;;;;;17.03;7.03;;;3.90;1.00;;;;;;5033208;28;20254;-66
2022/03/27 04:56:22;;;;;;;20.47;7.93;;;3.90;1.00;;;;;;5034450;28;20414;-63
2022/03/27 04:58:48;;;;;;;15.93;6.67;;;4.00;1.00;;;;;;5033579;28;20461;-62
2022/03/27 05:01:15;;;;;;;12.53;6.90;;;4.00;1.00;;;;;;5034191;28;20620;-62
2022/03/27 05:03:41;;;;;;;10.73;6.20;;;4.00;1.00;;;;;;5032942;28;20180;-67
2022/03/27 05:06:06;;;;;;;8.83;6.73;;;4.00;1.00;;;;;;5034043;28;20424;-66
2022/03/27 05:08:33;;;;;;;12.20;6.70;;;4.00;1.00;;;;;;5033346;28;20215;-66
2022/03/27 05:10:58;;;;;;;7.07;6.33;;;4.10;1.00;;;;;;5033701;28;20195;-67
2022/03/27 05:13:25;;;;;;;15.57;7.43;;;4.10;1.00;;;;;;5034035;28;20403;-66
2022/03/27 05:15:50;;;;;;;10.30;7.50;;;4.10;1.00;;;;;;5033924;28;20407;-63
2022/03/27 05:18:16;;;;;;;9.10;7.17;;;4.10;1.00;;;;;;5033959;28;21023;-62
2022/03/27 05:20:42;;;;;;;16.57;7.83;;;4.00;1.00;;;;;;5033267;28;20175;-63
2022/03/27 05:23:09;;;;;;;8.20;6.97;;;4.00;1.00;;;;;;5033672;28;20277;-64
2022/03/27 05:25:40;;;;;;;9.80;7.27;;;4.00;1.00;;;;;;5033805;28;20479;-63
2022/03/27 05:28:08;;;;;;;12.13;6.80;;;4.10;1.00;;;;;;5033732;28;20409;-66
2022/03/27 05:30:34;;;;;;;9.60;7.67;;;4.10;1.00;;;;;;5033056;28;20413;-63
2022/03/27 05:32:59;;;;;;;10.60;7.23;;;4.10;1.00;;;;;;5033653;28;20433;-62
2022/03/27 05:35:25;;;;;;;15.50;7.27;;;4.10;1.00;;;;;;5033658;28;20179;-67
2022/03/27 05:37:52;;;;;;;9.40;7.23;;;4.10;1.00;;;;;;5033385;28;20562;-63
2022/03/27 05:40:20;;;;;;;7.63;6.53;;;4.00;1.00;;;;;;5032928;28;20934;-68
2022/03/27 05:42:47;;;;;;;10.57;7.70;;;3.80;1.00;;;;;;5033533;28;20434;-65
2022/03/27 05:45:13;;;;;;;13.27;6.40;;;3.70;1.00;;;;;;5033248;28;20413;-62
2022/03/27 05:47:42;;;;;;;13.50;7.30;;;3.70;1.00;;;;;;5033534;28;20180;-67
2022/03/27 05:50:09;;;;;;;10.40;7.07;;;3.80;1.00;;;;;;5032666;28;20466;-63
2022/03/27 05:52:35;;;;;;;10.90;6.40;;;3.80;1.00;;;;;;5033545;28;20425;-66
2022/03/27 05:55:00;;;;;;;16.70;7.83;;;3.90;1.00;;;;;;5033594;28;20405;-62
2022/03/27 05:57:26;;;;;;;7.03;6.20;;;4.00;1.00;;;;;;5033418;28;20201;-66
2022/03/27 05:59:52;;;;;;;12.00;7.10;;;4.10;1.00;;;;;;5031314;28;20176;-65
2022/03/27 06:02:18;;;;;;;14.77;7.30;;;4.20;1.00;;;;;;5033234;28;20472;-67
2022/03/27 06:04:44;;;;;;;19.57;7.90;;;4.30;1.00;;;;;;5033277;28;20221;-63
2022/03/27 06:07:10;;;;;;;8.20;6.70;;;4.40;1.00;;;;;;5033390;28;20289;-66
2022/03/27 06:09:36;;;;;;;10.13;6.93;;;4.40;1.00;;;;;;5032740;28;20488;-66
2022/03/27 06:12:03;;;;;;;18.90;7.00;;;4.50;1.00;;;;;;5031934;28;20290;-67
2022/03/27 06:14:29;;;;;;;12.27;6.53;;;4.50;1.00;;;;;;5033184;28;20490;-67
2022/03/27 06:16:56;;;;;;;14.10;7.23;;;4.50;1.00;;;;;;5033260;28;20910;-67
2022/03/27 06:19:21;;;;;;;10.80;7.37;;;4.60;1.00;;;;;;5032492;28;20199;-63
2022/03/27 06:21:47;;;;;;;15.23;7.50;;;4.70;1.00;;;;;;5036042;28;20496;-66
2022/03/27 06:24:13;;;;;;;8.43;5.83;;;4.80;1.00;;;;;;5037081;28;20169;-64
2022/03/27 06:26:40;;;;;;;15.70;7.70;;;4.80;1.70;;;;;;5037398;28;20170;-67
2022/03/27 06:29:07;;;;;;;20.57;7.10;;;4.90;5.90;;;;;;5036460;28;20458;-67
2022/03/27 06:31:33;;;;;;;16.13;6.70;;;4.90;9.00;;;;;;5036989;28;20453;-63
2022/03/27 06:33:59;;;;;;;9.40;7.20;;;5.00;13.20;;;;;;5036921;28;20499;-67
2022/03/27 06:36:24;;;;;;;11.03;6.20;;;5.00;16.80;;;;;;5036814;28;20167;-63
2022/03/27 06:38:50;;;;;;;14.70;6.53;;;5.00;23.40;;;;;;5036517;28;20199;-66
2022/03/27 06:41:15;;;;;;;12.93;7.60;;;5.10;28.30;;;;;;5036870;28;20725;-67
2022/03/27 06:43:41;;;;;;;17.70;6.37;;;5.10;28.70;;;;;;5036875;28;20174;-67
2022/03/27 06:46:07;;;;;;;15.70;6.80;;;5.20;29.80;;;;;;5036845;28;20229;-63
2022/03/27 06:48:32;;;;;;;12.37;6.93;;;5.20;35.20;;;;;;5036050;28;20179;-65
2022/03/27 06:50:58;;;;;;;10.10;6.20;;;5.30;42.40;;;;;;5036766;28;20207;-68
2022/03/27 06:53:25;;;;;;;8.10;6.37;;;5.30;47.80;;;;;;5036752;28;20255;-66
2022/03/27 06:55:51;;;;;;;11.60;5.60;;;5.30;51.40;;;;;;5036574;28;20394;-63
2022/03/27 06:58:17;;;;;;;11.80;6.03;;;5.40;53.30;;;;;;5036354;28;20456;-64
2022/03/27 07:03:28;;;;;;;8.87;5.90;;;5.30;47.90;;;;;;5036850;28;20424;-66
2022/03/27 07:05:53;;;;;;;12.40;6.93;;;5.20;40.80;;;;;;5036418;28;20426;-67
2022/03/27 07:08:20;;;;;;;13.20;6.20;;;5.20;48.20;;;;;;5036416;28;20255;-63
2022/03/27 07:10:47;;;;;;;9.43;4.83;;;5.30;51.80;;;;;;5035723;28;20705;-68
2022/03/27 07:13:15;;;;;;;11.20;7.30;;;5.20;51.80;;;;;;5036245;28;20426;-67
2022/03/27 07:15:42;;;;;;;10.27;6.47;;;5.30;67.70;;;;;;5036199;28;20471;-64
2022/03/27 07:18:08;;;;;;;7.63;5.93;;;5.30;77.60;;;;;;5036116;28;20450;-63
2022/03/27 07:20:37;;;;;;;16.80;7.30;;;5.40;77.70;;;;;;5034121;28;20907;-64
2022/03/27 07:23:05;;;;;;;19.43;6.20;;;5.50;90.30;;;;;;5034730;28;20819;-68
2022/03/27 07:25:36;;;;;;;14.50;6.30;;;5.60;95.50;;;;;;5034813;28;20419;-68
2022/03/27 07:28:06;;;;;;;16.93;8.00;;;5.60;98.80;;;;;;5035919;28;20403;-64
2022/03/27 07:30:33;;;;;;;17.63;6.33;;;5.70;99.90;;;;;;5035283;28;20398;-64
2022/03/27 07:32:58;;;;;;;16.73;7.20;;;5.70;99.90;;;;;;5033801;28;20977;-68
2022/03/27 07:35:26;;;;;;;14.03;7.33;;;5.80;99.90;;;;;;5036025;28;20501;-68
2022/03/27 07:37:53;;;;;;;17.10;7.20;;;5.90;99.90;;;;;;5035758;28;20199;-63
2022/03/27 07:40:20;;;;;;;23.27;7.83;;;6.00;99.90;;;;;;5035074;28;20472;-63
2022/03/27 07:42:49;;;;;;;11.53;6.07;;;6.10;99.90;;;;;;5035387;28;20418;-64
2022/03/27 07:45:18;;;;;;;12.87;7.43;;;6.20;99.90;;;;;;5035657;28;20402;-63
2022/03/27 07:47:44;;;;;;;20.47;6.67;;;6.30;99.90;;;;;;5035806;28;20509;-67
2022/03/27 07:50:11;;;;;;;18.60;8.43;;;6.30;99.90;;;;;;5035171;28;20907;-68
2022/03/27 07:52:37;;;;;;;22.20;7.53;;;6.50;99.90;;;;;;5035566;28;20418;-64
2022/03/27 07:55:05;;;;;;;18.10;7.30;;;6.60;99.90;;;;;;5035524;28;20832;-65
2022/03/27 07:57:31;;;;;;;15.87;7.10;;;6.80;99.90;;;;;;5035612;28;20406;-63
2022/03/27 07:59:57;;;;;;;11.87;7.40;;;6.90;99.90;;;;;;5034974;28;20386;-68
2022/03/27 08:02:22;;;;;;;20.43;7.40;;;7.10;99.90;;;;;;5035403;28;20755;-64
2022/03/27 08:04:48;;;;;;;20.43;7.17;;;7.20;99.90;;;;;;5035300;28;20175;-64
2022/03/27 08:07:14;;;;;;;16.63;7.60;;;7.30;99.90;;;;;;5035190;28;20521;-69
2022/03/27 08:09:41;;;;;;;24.40;6.60;;;7.60;99.90;;;;;;5034701;28;20398;-68
2022/03/27 08:12:08;;;;;;;18.00;7.17;;;7.60;99.90;;;;;;5035298;28;20232;-64
2022/03/27 08:14:37;;;;;;;13.13;6.67;;;7.80;98.10;;;;;;5035233;28;20868;-68
2022/03/27 08:17:04;;;;;;;11.43;6.60;;;7.90;97.80;;;;;;5035019;28;20804;-68
2022/03/27 08:19:30;;;;;;;26.60;6.70;;;8.10;92.40;;;;;;5034554;28;20616;-68
2022/03/27 08:21:56;;;;;;;25.50;7.07;;;8.20;87.90;;;;;;5035068;28;20465;-69
2022/03/27 08:24:22;;;;;;;19.57;7.00;;;8.50;90.00;;;;;;5034954;28;20195;-64
2022/03/27 08:26:59;;;;;;;22.63;7.47;;;8.60;80.10;;;;;;5034865;28;20481;-69
2022/03/27 08:29:36;;;;;;;23.00;6.97;;;8.80;70.10;;;;;;5032873;28;20381;-64
2022/03/27 08:32:04;;;;;;;21.57;6.07;;;9.00;41.10;;;;;;5034851;28;20429;-69
2022/03/27 08:34:33;;;;;;;24.60;6.00;;;9.10;24.50;;;;;;5034831;28;20397;-69
2022/03/27 08:37:04;;;;;;;18.27;5.30;;;9.30;5.70;;;;;;5034607;28;20547;-69
2022/03/27 08:39:30;;;;;;;22.37;6.43;;;9.40;1.00;;;;;;5033884;28;20453;-63
2022/03/27 08:41:56;;;;;;;11.03;5.70;;;9.60;1.00;;;;;;5034500;28;20417;-67
2022/03/27 08:44:24;;;;;;;14.30;6.07;;;9.60;1.00;;;;;;5033667;28;20398;-68
2022/03/27 08:46:51;;;;;;;21.23;5.83;;;9.70;1.00;;;;;;5034516;28;20531;-68
2022/03/27 08:49:26;;;;;;;18.60;5.83;;;9.70;1.00;;;;;;5032361;28;20414;-67
2022/03/27 08:52:00;;;;;;;14.10;6.13;;;9.80;1.00;;;;;;5034495;28;20519;-69
2022/03/27 08:54:38;;;;;;;7.37;5.30;;;9.90;1.00;;;;;;5034527;28;20398;-63
2022/03/27 08:57:24;;;;;;;22.67;6.07;;;10.10;1.00;;;;;;5034508;28;20413;-64
2022/03/27 08:59:54;;;;;;;14.53;4.90;;;10.30;1.00;;;;;;5032411;28;20434;-68
2022/03/27 09:02:23;;;;;;;19.40;5.53;;;10.50;1.00;;;;;;5034308;28;20414;-63
2022/03/27 09:04:59;;;;;;;13.37;6.20;;;10.70;1.00;;;;;;5034241;28;20386;-68
2022/03/27 09:07:27;;;;;;;10.53;5.10;;;10.90;1.00;;;;;;5034048;28;20417;-63
2022/03/27 09:09:53;;;;;;;13.47;4.50;;;11.00;1.00;;;;;;5033443;28;20398;-63
2022/03/27 09:12:20;;;;;;;10.60;4.67;;;11.10;1.00;;;;;;5033993;28;20415;-68
2022/03/27 09:14:46;;;;;;;10.80;4.67;;;11.30;1.00;;;;;;5034051;28;20391;-68
2022/03/27 09:17:13;;;;;;;15.53;6.70;;;11.50;1.00;;;;;;5034034;28;20361;-69
2022/03/27 09:19:48;;;;;;;12.00;4.77;;;11.80;1.00;;;;;;5033068;28;20195;-69
2022/03/27 09:22:18;;;;;;;10.10;5.67;;;11.90;1.00;;;;;;5033913;28;20414;-68
2022/03/27 09:24:47;;;;;;;8.53;5.23;;;12.20;1.00;;;;;;5033795;28;20419;-64
2022/03/27 09:27:15;;;;;;;11.87;4.57;;;12.50;1.00;;;;;;5033775;28;20449;-63
2022/03/27 09:29:59;;;;;;;14.47;5.97;;;12.60;1.00;;;;;;5031695;28;20472;-64
2022/03/27 09:32:31;;;;;;;11.93;5.90;;;12.80;99.90;;;;;;5033610;28;20397;-69
2022/03/27 09:35:07;;;;;;;12.20;5.17;;;13.10;99.90;;;;;;5033699;28;20407;-63
2022/03/27 09:37:35;;;;;;;9.73;5.03;;;13.50;99.90;;;;;;5033444;28;20422;-64
2022/03/27 09:40:02;;;;;;;21.53;5.37;;;13.70;99.90;;;;;;5032841;28;20407;-63
2022/03/27 09:42:28;;;;;;;9.60;4.73;;;14.10;99.90;;;;;;5033748;28;20776;-69
2022/03/27 09:45:17;;;;;;;9.40;4.70;;;14.20;99.90;;;;;;5033500;28;20982;-63
2022/03/27 09:47:45;;;;;;;6.30;4.40;;;14.50;99.90;;;;;;5033317;28;20398;-67
2022/03/27 09:50:30;;;;;;;12.80;4.20;;;14.80;99.90;;;;;;5032960;28;20456;-63
2022/03/27 09:53:18;;;;;;;7.43;4.43;;;14.70;99.90;;;;;;5033505;28;20424;-63
2022/03/27 09:55:44;;;;;;;8.60;4.23;;;14.80;99.90;;;;;;5033149;28;20376;-69
2022/03/27 09:58:12;;;;;;;10.57;4.77;;;15.00;99.90;;;;;;5033371;28;20445;-68
2022/03/27 10:00:38;;;;;;;11.67;3.93;;;15.20;99.90;;;;;;5032780;28;20406;-63
2022/03/27 10:03:10;;;;;;;14.53;4.33;;;15.50;99.90;;;;;;5033380;28;20418;-64
2022/03/27 10:05:36;;;;;;;6.23;4.03;;;15.60;99.90;;;;;;5033344;28;20695;-68
2022/03/27 10:08:02;;;;;;;12.23;4.83;;;15.90;99.90;;;;;;5033072;28;20479;-68
2022/03/27 10:10:29;;;;;;;8.63;5.00;;;16.20;99.90;;;;;;5032750;28;20394;-68
2022/03/27 10:12:56;;;;;;;4.47;3.50;;;16.50;99.90;;;;;;5033173;28;20836;-61
2022/03/27 10:15:28;;;;;;;7.70;3.97;;;16.90;99.90;;;;;;5033292;28;20485;-67
2022/03/27 10:18:00;;;;;;;5.97;4.03;;;17.10;99.90;;;;;;5033056;28;20438;-64
2022/03/27 10:20:33;;;;;;;9.90;3.90;;;17.10;99.90;;;;;;5032625;28;20369;-63
2022/03/27 10:23:22;;;;;;;10.27;4.20;;;17.00;99.90;;;;;;5033099;28;20389;-65
2022/03/27 10:25:54;;;;;;;11.20;4.87;;;17.00;99.90;;;;;;5033193;28;20933;-62
2022/03/27 10:28:21;;;;;;;12.57;4.30;;;17.00;99.90;;;;;;5033073;28;20429;-62
2022/03/27 10:30:51;;;;;;;13.37;4.03;;;17.10;99.90;;;;;;5032551;28;20426;-61
2022/03/27 10:33:17;;;;;;;8.33;3.60;;;17.30;99.90;;;;;;5033006;28;20423;-62
2022/03/27 10:35:57;;;;;;;9.67;3.87;;;17.50;99.90;;;;;;5032075;28;20437;-66
2022/03/27 10:38:54;;;;;;;7.53;3.60;;;17.40;99.90;;;;;;5032765;28;20432;-67
2022/03/27 10:41:31;;;;;;;6.50;4.27;;;17.40;99.90;;;;;;5033002;28;20424;-66
2022/03/27 10:44:26;;;;;;;9.73;3.80;;;17.80;99.90;;;;;;5032772;28;20744;-62
2022/03/27 10:47:14;;;;;;;14.07;4.67;;;18.30;99.90;;;;;;5033026;28;20486;-62
2022/03/27 10:49:42;;;;;;;12.20;3.80;;;18.50;99.90;;;;;;5032246;28;20487;-61
2022/03/27 10:52:09;;;;;;;16.83;4.20;;;18.70;99.90;;;;;;5031619;28;20473;-67
2022/03/27 10:54:58;;;;;;;11.53;4.53;;;18.80;99.90;;;;;;5032823;28;20436;-67
2022/03/27 10:57:34;;;;;;;11.40;4.40;;;19.20;99.90;;;;;;5032839;28;20401;-61
2022/03/27 11:00:01;;;;;;;8.90;3.90;;;19.20;99.90;;;;;;5032161;28;20398;-66
2022/03/27 11:02:50;;;;;;;14.30;4.23;;;18.70;99.90;;;;;;5032606;28;20411;-61
2022/03/27 11:05:31;;;;;;;8.33;4.60;;;18.20;99.90;;;;;;5032986;28;20391;-61
2022/03/27 11:08:18;;;;;;;6.23;3.90;;;17.90;99.90;;;;;;5034191;28;20414;-62
2022/03/27 11:10:43;;;;;;;10.50;5.43;;;17.80;99.90;;;;;;5035782;28;20485;-66
2022/03/27 11:13:27;;;;;;;9.03;4.77;;;17.70;99.90;;;;;;5036233;28;20453;-62
2022/03/27 11:16:15;;;;;;;10.83;3.53;;;18.00;99.90;;;;;;5036274;28;20168;-62
2022/03/27 11:18:42;;;;;;;8.13;3.77;;;18.20;99.90;;;;;;5035303;28;20450;-67
2022/03/27 11:21:10;;;;;;;12.00;4.53;;;18.60;99.90;;;;;;5036138;28;20430;-67
2022/03/27 11:23:38;;;;;;;7.10;3.30;;;19.10;99.90;;;;;;5036085;28;20733;-62
2022/03/27 11:26:27;;;;;;;11.13;5.03;;;19.30;99.90;;;;;;5036026;28;20783;-67
2022/03/27 11:28:55;;;;;;;6.37;4.20;;;19.40;99.90;;;;;;5034013;28;20900;-62
2022/03/27 11:31:37;;;;;;;11.93;4.00;;;19.70;99.90;;;;;;5035916;28;20480;-62
2022/03/27 11:34:11;;;;;;;11.77;4.80;;;20.20;99.90;;;;;;5035774;28;20767;-66
2022/03/27 11:36:38;;;;;;;7.67;3.17;;;19.80;99.90;;;;;;5035698;28;20493;-62
2022/03/27 11:39:08;;;;;;;3.43;3.13;;;19.10;99.90;;;;;;5033869;28;20877;-62
2022/03/27 11:41:44;;;;;;;13.40;3.90;;;18.90;99.90;;;;;;5035692;28;20815;-62
2022/03/27 11:47:34;;;;;;;7.07;4.60;;;18.50;99.90;;;;;;5036089;28;20388;-67
2022/03/27 11:49:59;;;;;;;14.00;3.90;;;17.80;99.90;;;;;;5033734;28;20417;-67
2022/03/27 11:52:25;;;;;;;8.17;4.10;;;17.40;99.90;;;;;;5035475;28;20418;-67
2022/03/27 11:55:09;;;;;;;6.53;3.40;;;16.90;99.90;;;;;;5035449;28;20556;-62
2022/03/27 11:57:47;;;;;;;5.97;4.00;;;16.90;99.90;;;;;;5035602;28;20170;-61
2022/03/27 12:00:15;;;;;;;4.17;2.80;;;17.10;99.90;;;;;;5034984;28;20486;-66
2022/03/27 12:02:43;;;;;;;8.20;3.80;;;16.90;99.90;;;;;;5035226;28;20427;-66
2022/03/27 12:05:13;;;;;;;11.10;4.00;;;16.80;99.90;;;;;;5035377;28;20410;-62
2022/03/27 12:07:52;;;;;;;12.07;3.77;;;17.00;99.90;;;;;;5035178;28;20919;-62
2022/03/27 12:10:18;;;;;;;9.83;3.77;;;17.80;99.90;;;;;;5034693;28;20899;-62
2022/03/27 12:13:05;;;;;;;5.67;3.23;;;18.60;99.90;;;;;;5035122;28;20421;-66
2022/03/27 12:15:49;;;;;;;7.20;3.40;;;19.50;99.90;;;;;;5035225;28;20898;-65
2022/03/27 12:18:35;;;;;;;4.07;3.00;;;20.40;99.90;;;;;;5034906;28;20448;-68
2022/03/27 12:21:05;;;;;;;5.67;2.53;;;21.00;99.90;;;;;;5034579;28;20417;-63
2022/03/27 12:23:37;;;;;;;3.20;2.73;;;21.50;99.90;;;;;;5035094;28;20399;-62
2022/03/27 12:26:04;;;;;;;5.73;2.87;;;21.90;99.90;;;;;;5034958;28;20463;-63
2022/03/27 12:31:24;;;;;;;5.07;2.77;;;23.20;99.90;;;;;;5034719;28;20402;-62
2022/03/27 12:33:51;;;;;;;4.80;2.40;;;23.60;97.10;;;;;;5034894;28;20484;-67
2022/03/27 12:36:16;;;;;;;3.80;2.17;;;23.60;97.00;;;;;;5034795;28;20896;-67
2022/03/27 12:38:43;;;;;;;6.93;2.73;;;23.30;94.00;;;;;;5033930;28;20470;-62
2022/03/27 12:41:10;;;;;;;5.23;2.40;;;23.90;93.50;;;;;;5034439;28;20249;-62
2022/03/27 12:43:55;;;;;;;3.20;2.03;;;24.50;92.10;;;;;;5034982;28;20405;-62
2022/03/27 12:46:23;;;;;;;3.63;1.67;;;24.50;84.30;;;;;;5034597;28;20480;-63
2022/03/27 12:49:00;;;;;;;9.10;2.83;;;24.60;77.10;;;;;;5033848;28;20406;-67
2022/03/27 12:51:26;;;;;;;4.73;2.37;;;24.70;74.30;;;;;;5034294;28;20491;-62
2022/03/27 12:54:07;;;;;;;5.73;2.77;;;24.60;69.10;;;;;;5034463;28;20489;-67
2022/03/27 12:56:34;;;;;;;4.97;2.80;;;25.20;71.40;;;;;;5034429;28;20532;-63
2022/03/27 12:59:18;;;;;;;5.90;2.00;;;25.70;69.40;;;;;;5032363;28;20446;-67
2022/03/27 13:01:44;;;;;;;7.13;2.43;;;26.50;66.70;;;;;;5033943;28;20462;-68
2022/03/27 13:04:10;;;;;;;5.10;2.40;;;27.00;64.60;;;;;;5034129;28;20400;-62
2022/03/27 13:06:39;;;;;;;5.30;2.50;;;27.20;61.20;;;;;;5033995;28;20181;-62
2022/03/27 13:09:08;;;;;;;5.97;2.40;;;27.40;57.90;;;;;;5033273;28;20434;-64
2022/03/27 13:11:42;;;;;;;5.63;2.00;;;27.40;51.60;;;;;;5033817;28;20476;-68